createdAt,value
2022-11-24T00:11:39.824Z,6.68
2022-11-24T00:12:31.490Z,6.71
2022-11-24T00:13:33.610Z,6.73
2022-11-24T00:14:32.107Z,6.77
2022-11-24T00:26:57.361Z,6.63
2022-11-24T00:27:58.258Z,6.66
2022-11-24T00:28:58.601Z,6.68
2022-11-24T01:04:59.389Z,6.51
2022-11-24T01:06:00.339Z,6.54
2022-11-24T01:07:00.420Z,6.61
2022-11-24T01:08:00.541Z,6.65
2022-11-24T01:09:00.500Z,6.71
2022-11-24T01:29:12.701Z,6.48
2022-11-24T01:30:12.538Z,6.53
2022-11-24T02:54:44.778Z,6.29
2022-11-24T02:55:45.717Z,6.35
2022-11-24T02:56:45.846Z,6.40
2022-11-24T02:57:45.735Z,6.46
2022-11-24T02:58:45.901Z,6.53
2022-11-24T02:59:46.713Z,6.62
2022-11-24T04:17:45.191Z,6.29
2022-11-24T04:18:45.034Z,6.33
2022-11-24T04:19:45.212Z,6.40
2022-11-24T04:20:45.193Z,6.47
2022-11-24T04:23:57.291Z,6.59
2022-11-24T04:24:58.437Z,6.59
2022-11-24T04:25:58.885Z,6.62
2022-11-24T04:27:04.551Z,6.66
2022-11-24T04:27:58.353Z,6.72
2022-11-24T04:31:27.137Z,6.77
2022-11-24T04:31:32.170Z,6.89
2022-11-24T04:32:32.298Z,6.97
2022-11-24T04:33:32.388Z,7.01
2022-11-24T04:34:51.676Z,7.05
2022-11-24T04:40:23.840Z,7.08
2022-11-24T04:40:28.817Z,7.17
2022-11-24T04:41:28.864Z,7.23
2022-11-24T04:42:29.098Z,7.24
2022-11-24T04:43:29.077Z,7.27
2022-11-24T05:43:59.279Z,6.32
2022-11-24T05:44:40.884Z,6.36
2022-11-24T05:45:40.932Z,6.43
2022-11-24T05:46:41.782Z,6.50
2022-11-24T05:47:41.248Z,6.59
2022-11-24T05:51:50.270Z,6.65
2022-11-24T05:51:57.163Z,6.84
2022-11-24T07:06:45.199Z,6.13
2022-11-24T07:07:46.684Z,6.16
2022-11-24T07:08:58.962Z,6.22
2022-11-24T07:09:46.106Z,6.29
2022-11-24T07:10:46.937Z,6.38
2022-11-24T07:11:45.942Z,6.43
2022-11-24T07:12:46.697Z,6.51
2022-11-24T07:13:46.199Z,6.58
2022-11-24T07:14:46.832Z,6.65
2022-11-24T07:15:46.279Z,6.71
2022-11-24T07:16:46.580Z,6.76
2022-11-24T07:17:46.681Z,6.80
2022-11-24T07:18:46.652Z,6.84
2022-11-24T07:19:46.691Z,6.87
2022-11-24T07:20:47.298Z,6.91
2022-11-24T07:21:46.881Z,6.97
2022-11-24T07:22:47.104Z,6.99
2022-11-24T07:23:47.095Z,7.04
2022-11-24T07:24:47.150Z,7.08
2022-11-24T07:25:47.330Z,7.08
2022-11-24T07:26:47.256Z,7.12
2022-11-24T07:27:47.332Z,7.16
2022-11-24T07:28:47.415Z,7.17
2022-11-24T07:29:47.455Z,7.19
2022-11-24T07:34:47.069Z,7.07
2022-11-24T07:35:48.236Z,7.07
2022-11-24T07:38:49.106Z,7.05
2022-11-24T07:39:50.141Z,7.02
2022-11-24T07:40:50.161Z,7.02
2022-11-24T07:41:50.179Z,7.07
2022-11-24T07:42:50.499Z,7.07
2022-11-24T07:47:50.243Z,7.05
2022-11-24T07:48:51.200Z,7.02
2022-11-24T07:49:51.303Z,7.02
2022-11-24T07:50:55.748Z,7.05
2022-11-24T07:51:51.411Z,7.07
2022-11-24T07:52:51.652Z,7.12
2022-11-24T07:53:51.584Z,7.15
2022-11-24T07:54:51.711Z,7.17
2022-11-24T07:55:51.757Z,7.20
2022-11-24T07:56:51.873Z,7.22
2022-11-24T07:57:51.931Z,7.23
2022-11-24T07:58:53.107Z,7.26
2022-11-24T07:59:52.093Z,7.27
2022-11-24T08:00:52.147Z,7.31
2022-11-24T08:01:52.271Z,7.32
2022-11-24T08:02:52.363Z,7.34
2022-11-24T08:03:52.481Z,7.35
2022-11-24T08:04:52.542Z,7.38
2022-11-24T08:06:15.991Z,7.41
2022-11-24T08:06:52.671Z,7.44
2022-11-24T08:07:52.802Z,7.45
2022-11-24T08:08:52.862Z,7.47
2022-11-24T08:09:52.935Z,7.50
2022-11-24T08:10:53.035Z,7.52
2022-11-24T08:11:53.245Z,7.52
2022-11-24T08:12:53.207Z,7.53
2022-11-24T08:13:53.305Z,7.55
2022-11-24T08:14:53.398Z,7.56
2022-11-24T08:15:53.525Z,7.58
2022-11-24T08:16:53.616Z,7.59
2022-11-24T08:17:53.535Z,7.60
2022-11-24T08:18:53.622Z,7.62
2022-11-24T08:19:53.995Z,7.67
2022-11-24T08:20:53.779Z,7.66
2022-11-24T08:21:54.092Z,7.69
2022-11-24T08:22:54.248Z,7.69
2022-11-24T08:23:54.057Z,7.71
2022-11-24T08:24:54.218Z,7.72
2022-11-24T08:25:56.991Z,7.74
2022-11-24T08:26:54.463Z,7.74
2022-11-24T08:31:49.174Z,7.50
2022-11-24T08:32:50.098Z,7.49
2022-11-24T08:33:50.112Z,7.45
2022-11-24T08:34:50.099Z,7.47
2022-11-24T08:35:50.174Z,7.47
2022-11-24T08:36:50.214Z,7.50
2022-11-24T08:37:50.366Z,7.50
2022-11-24T08:38:50.378Z,7.53
2022-11-24T08:39:50.499Z,7.55
2022-11-24T08:40:50.582Z,7.55
2022-11-24T08:41:50.620Z,7.58
2022-11-24T08:42:50.734Z,7.59
2022-11-24T08:43:50.772Z,7.59
2022-11-24T08:44:58.623Z,7.62
2022-11-24T08:45:51.089Z,7.62
2022-11-24T08:46:51.027Z,7.63
2022-11-24T08:47:51.094Z,7.66
2022-11-24T08:48:51.234Z,7.69
2022-11-24T08:49:51.304Z,7.69
2022-11-24T08:50:51.465Z,7.69
2022-11-24T08:51:51.432Z,7.71
2022-11-24T08:52:51.507Z,7.72
2022-11-24T08:53:51.597Z,7.72
2022-11-24T08:54:55.439Z,7.72
2022-11-24T08:55:51.788Z,7.74
2022-11-24T08:56:51.885Z,7.74
2022-11-24T08:57:51.966Z,7.75
2022-11-24T08:58:52.094Z,7.75
2022-11-24T08:59:52.081Z,7.75
2022-11-24T09:00:52.218Z,7.77
2022-11-24T09:01:52.432Z,7.77
2022-11-24T09:02:52.398Z,7.77
2022-11-24T09:03:52.618Z,7.78
2022-11-24T09:04:52.633Z,7.78
2022-11-24T09:05:53.114Z,7.78
2022-11-24T09:06:52.798Z,7.78
2022-11-24T09:07:52.843Z,7.78
2022-11-24T09:08:53.021Z,7.78
2022-11-24T09:09:52.960Z,7.77
2022-11-24T09:10:53.087Z,7.78
2022-11-24T09:11:53.155Z,7.78
2022-11-24T09:12:53.227Z,7.78
2022-11-24T09:13:53.303Z,7.81
2022-11-24T09:14:53.375Z,7.79
2022-11-24T09:15:53.503Z,7.81
2022-11-24T09:16:53.608Z,7.81
2022-11-24T09:17:53.574Z,7.79
2022-11-24T09:18:53.665Z,7.79
2022-11-24T09:19:53.748Z,7.81
2022-11-24T09:20:53.917Z,7.81
2022-11-24T09:21:54.034Z,7.81
2022-11-24T09:22:54.046Z,7.81
2022-11-24T09:23:54.099Z,7.82
2022-11-24T09:24:54.240Z,7.82
2022-11-24T09:25:54.348Z,7.81
2022-11-24T09:26:54.372Z,7.82
2022-11-24T09:27:54.431Z,7.82
2022-11-24T09:28:54.738Z,7.81
2022-11-24T09:29:54.601Z,7.79
2022-11-24T09:30:54.693Z,7.84
2022-11-24T09:31:54.748Z,7.82
2022-11-24T09:32:54.863Z,7.84
2022-11-24T09:33:54.951Z,7.85
2022-11-24T09:34:55.016Z,7.87
2022-11-24T09:35:55.107Z,7.85
2022-11-24T09:36:55.152Z,7.87
2022-11-24T09:37:55.188Z,7.85
2022-11-24T09:38:55.372Z,7.87
2022-11-24T09:39:55.369Z,7.85
2022-11-24T09:40:55.435Z,7.85
2022-11-24T09:41:55.507Z,7.87
2022-11-24T09:42:55.561Z,7.87
2022-11-24T09:43:55.656Z,7.85
2022-11-24T09:44:55.752Z,7.89
2022-11-24T09:46:11.382Z,7.90
2022-11-24T09:46:56.011Z,7.90
2022-11-24T09:47:55.920Z,7.90
2022-11-24T09:48:56.022Z,7.92
2022-11-24T09:52:33.939Z,7.79
2022-11-24T09:53:34.961Z,7.77
2022-11-24T09:56:12.098Z,7.67
2022-11-24T09:57:13.031Z,7.59
2022-11-24T09:58:13.121Z,7.60
2022-11-24T09:59:13.211Z,7.60
2022-11-24T10:00:13.243Z,7.60
2022-11-24T10:01:14.503Z,7.62
2022-11-24T10:02:13.456Z,7.63
2022-11-24T10:03:13.495Z,7.66
2022-11-24T10:04:13.649Z,7.69
2022-11-24T10:05:13.663Z,7.71
2022-11-24T10:06:13.733Z,7.74
2022-11-24T10:07:13.881Z,7.75
2022-11-24T10:08:13.908Z,7.77
2022-11-24T10:09:13.957Z,7.78
2022-11-24T10:10:14.182Z,7.79
2022-11-24T10:11:14.288Z,7.79
2022-11-24T10:12:14.262Z,7.81
2022-11-24T10:13:14.289Z,7.82
2022-11-24T10:14:14.431Z,7.84
2022-11-24T10:15:14.481Z,7.82
2022-11-24T10:16:14.608Z,7.81
2022-11-24T10:17:14.686Z,7.79
2022-11-24T10:18:16.990Z,7.79
2022-11-24T10:19:14.914Z,7.78
2022-11-24T10:20:14.925Z,7.78
2022-11-24T10:21:14.994Z,7.75
2022-11-24T10:22:15.084Z,7.74
2022-11-24T10:23:15.260Z,7.74
2022-11-24T10:24:15.189Z,7.71
2022-11-24T10:25:15.268Z,7.69
2022-11-24T10:26:15.358Z,7.67
2022-11-24T10:27:15.458Z,7.63
2022-11-24T10:28:15.502Z,7.60
2022-11-24T10:29:15.581Z,7.56
2022-11-24T10:30:15.680Z,7.56
2022-11-24T10:31:15.815Z,7.53
2022-11-24T10:32:15.843Z,7.52
2022-11-24T10:33:15.877Z,7.49
2022-11-24T10:34:15.996Z,7.47
2022-11-24T10:35:16.060Z,7.44
2022-11-24T10:36:16.152Z,7.42
2022-11-24T10:37:16.237Z,7.40
2022-11-24T10:38:16.263Z,7.40
2022-11-24T10:39:16.338Z,7.37
2022-11-24T10:40:40.497Z,7.35
2022-11-24T10:41:16.539Z,7.32
2022-11-24T10:42:16.636Z,7.32
2022-11-24T10:43:16.686Z,7.31
2022-11-24T10:44:16.782Z,7.29
2022-11-24T10:45:16.880Z,7.32
2022-11-24T10:46:17.069Z,7.29
2022-11-24T10:47:17.067Z,7.29
2022-11-24T10:48:17.101Z,7.31
2022-11-24T10:49:17.208Z,7.27
2022-11-24T10:50:17.266Z,7.29
2022-11-24T10:51:17.347Z,7.29
2022-11-24T10:52:17.478Z,7.29
2022-11-24T10:53:17.517Z,7.29
2022-11-24T10:54:17.595Z,7.29
2022-11-24T10:55:17.686Z,7.29
2022-11-24T10:56:17.764Z,7.29
2022-11-24T10:57:17.852Z,7.31
2022-11-24T10:58:17.928Z,7.32
2022-11-24T10:59:18.009Z,7.34
2022-11-24T11:00:18.113Z,7.35
2022-11-24T11:01:18.170Z,7.37
2022-11-24T11:02:18.284Z,7.37
2022-11-24T11:03:18.322Z,7.37
2022-11-24T11:04:18.406Z,7.37
2022-11-24T11:05:18.504Z,7.40
2022-11-24T11:06:18.624Z,7.41
2022-11-24T11:07:18.801Z,7.40
2022-11-24T11:08:18.765Z,7.41
2022-11-24T11:09:18.879Z,7.42
2022-11-24T11:10:18.939Z,7.42
2022-11-24T11:11:18.980Z,7.44
2022-11-24T11:13:19.130Z,7.45
2022-11-24T11:14:19.224Z,7.47
2022-11-24T11:15:19.293Z,7.49
2022-11-24T11:16:19.437Z,7.49
2022-11-24T11:17:19.489Z,7.49
2022-11-24T11:18:19.541Z,7.52
2022-11-24T11:19:47.464Z,7.53
2022-11-24T11:20:19.698Z,7.53
2022-11-24T11:21:19.790Z,7.56
2022-11-24T11:22:19.886Z,7.55
2022-11-24T11:23:19.973Z,7.56
2022-11-24T11:24:20.070Z,7.58
2022-11-24T11:25:20.154Z,7.60
2022-11-24T11:26:20.230Z,7.62
2022-11-24T11:27:20.354Z,7.62
2022-11-24T11:28:20.385Z,7.63
2022-11-24T11:31:22.120Z,7.67
2022-11-24T11:34:28.511Z,7.71
2022-11-24T11:35:20.976Z,7.72
2022-11-24T11:36:21.048Z,7.72
2022-11-24T11:37:21.167Z,7.72
2022-11-24T11:38:21.190Z,7.74
2022-11-24T11:39:21.299Z,7.77
2022-11-24T11:40:21.368Z,7.79
2022-11-24T11:41:21.473Z,7.79
2022-11-24T11:42:53.841Z,7.78
2022-11-24T11:43:21.598Z,7.78
2022-11-24T11:44:21.687Z,7.81
2022-11-24T11:45:21.890Z,7.81
2022-11-24T11:46:22.004Z,7.81
2022-11-24T11:47:21.946Z,7.79
2022-11-24T11:48:21.987Z,7.81
2022-11-24T11:49:22.109Z,7.82
2022-11-24T11:50:22.214Z,7.84
2022-11-24T11:51:24.022Z,7.84
2022-11-24T11:52:22.383Z,7.84
2022-11-24T11:53:22.433Z,7.84
2022-11-24T11:54:22.511Z,7.85
2022-11-24T11:55:22.702Z,7.85
2022-11-24T11:56:22.684Z,7.87
2022-11-24T11:57:22.791Z,7.87
2022-11-24T11:58:22.837Z,7.89
2022-11-24T11:59:22.930Z,7.89
2022-11-24T12:00:22.995Z,7.90
2022-11-24T12:01:23.076Z,7.90
2022-11-24T12:02:23.400Z,7.92
2022-11-24T12:03:23.347Z,7.92
2022-11-24T12:04:23.300Z,7.92
2022-11-24T12:05:23.382Z,7.90
2022-11-24T12:06:23.479Z,7.93
2022-11-24T12:07:23.597Z,7.92
2022-11-24T12:08:23.799Z,7.92
2022-11-24T12:09:23.791Z,7.90
2022-11-24T12:10:23.839Z,7.90
2022-11-24T12:11:23.928Z,7.92
2022-11-24T12:12:24.056Z,7.92
2022-11-24T12:13:24.176Z,7.92
2022-11-24T12:14:24.179Z,7.92
2022-11-24T12:15:24.252Z,7.87
2022-11-24T12:16:25.414Z,7.89
2022-11-24T12:17:24.444Z,7.89
2022-11-24T12:18:55.059Z,7.89
2022-11-24T12:19:24.589Z,7.89
2022-11-24T12:20:24.681Z,7.87
2022-11-24T12:21:26.718Z,7.87
2022-11-24T12:22:24.921Z,7.87
2022-11-24T12:23:25.047Z,7.87
2022-11-24T12:24:25.148Z,7.87
2022-11-24T12:25:25.134Z,7.87
2022-11-24T12:26:25.220Z,7.89
2022-11-24T12:27:25.350Z,7.87
2022-11-24T12:28:25.418Z,7.87
2022-11-24T12:29:25.469Z,7.87
2022-11-24T12:30:25.548Z,7.87
2022-11-24T12:31:25.836Z,7.87
2022-11-24T12:32:25.738Z,7.85
2022-11-24T12:33:25.953Z,7.85
2022-11-24T12:34:25.919Z,7.85
2022-11-24T12:35:26.040Z,7.85
2022-11-24T12:36:26.100Z,7.84
2022-11-24T12:37:26.205Z,7.82
2022-11-24T12:38:26.235Z,7.82
2022-11-24T12:39:26.343Z,7.81
2022-11-24T12:40:26.412Z,7.81
2022-11-24T12:41:41.347Z,7.79
2022-11-24T12:42:26.602Z,7.79
2022-11-24T12:43:26.650Z,7.79
2022-11-24T12:44:26.752Z,7.79
2022-11-24T12:45:26.812Z,7.78
2022-11-24T12:46:26.932Z,7.81
2022-11-24T12:47:26.979Z,7.79
2022-11-24T12:48:27.011Z,7.78
2022-11-24T12:49:27.109Z,7.79
2022-11-24T12:50:27.203Z,7.79
2022-11-24T12:51:27.311Z,7.78
2022-11-24T12:52:27.371Z,7.79
2022-11-24T12:53:27.418Z,7.79
2022-11-24T12:54:27.525Z,7.79
2022-11-24T12:55:27.604Z,7.81
2022-11-24T12:56:27.690Z,7.82
2022-11-24T12:57:27.820Z,7.84
2022-11-24T12:58:27.868Z,7.81
2022-11-24T12:59:27.946Z,7.81
2022-11-24T13:00:28.029Z,7.82
2022-11-24T13:01:28.184Z,7.82
2022-11-24T13:02:28.359Z,7.82
2022-11-24T13:03:28.315Z,7.84
2022-11-24T13:04:28.372Z,7.85
2022-11-24T13:05:28.463Z,7.85
2022-11-24T13:06:28.578Z,7.85
2022-11-24T13:07:28.698Z,7.87
2022-11-24T13:08:28.671Z,7.85
2022-11-24T13:09:28.765Z,7.85
2022-11-24T13:11:28.932Z,7.85
2022-11-24T13:12:29.141Z,7.85
2022-11-24T13:13:29.110Z,7.84
2022-11-24T13:14:29.178Z,7.84
2022-11-24T13:15:45.669Z,7.85
2022-11-24T13:16:44.469Z,7.84
2022-11-24T13:17:33.751Z,7.85
2022-11-24T13:18:29.565Z,7.82
2022-11-24T13:19:29.608Z,7.82
2022-11-24T13:20:29.649Z,7.84
2022-11-24T13:21:29.754Z,7.82
2022-11-24T13:22:29.865Z,7.81
2022-11-24T13:23:29.881Z,7.82
2022-11-24T13:24:29.964Z,7.81
2022-11-24T13:25:30.070Z,7.82
2022-11-24T13:26:30.162Z,7.82
2022-11-24T13:27:30.246Z,7.81
2022-11-24T13:28:59.995Z,7.81
2022-11-24T13:29:30.391Z,7.82
2022-11-24T13:30:30.465Z,7.82
2022-11-24T13:31:30.597Z,7.82
2022-11-24T13:32:30.639Z,7.81
2022-11-24T13:33:30.692Z,7.82
2022-11-24T13:34:30.789Z,7.79
2022-11-24T13:35:30.877Z,7.81
2022-11-24T13:36:30.916Z,7.81
2022-11-24T13:37:34.776Z,7.79
2022-11-24T13:38:31.097Z,7.81
2022-11-24T13:39:34.785Z,7.82
2022-11-24T13:40:31.276Z,7.82
2022-11-24T13:41:31.373Z,7.82
2022-11-24T13:42:42.705Z,7.84
2022-11-24T13:43:31.521Z,7.84
2022-11-24T13:44:31.632Z,7.87
2022-11-24T13:45:31.681Z,7.87
2022-11-24T13:46:31.793Z,7.87
2022-11-24T13:47:31.900Z,7.89
2022-11-24T13:48:31.940Z,7.89
2022-11-24T13:49:32.035Z,7.90
2022-11-24T13:50:32.062Z,7.90
2022-11-24T13:51:32.152Z,7.90
2022-11-24T13:52:32.255Z,7.92
2022-11-24T13:53:32.304Z,7.92
2022-11-24T13:54:32.903Z,7.93
2022-11-24T13:55:32.458Z,7.93
2022-11-24T13:56:32.539Z,7.93
2022-11-24T13:57:53.655Z,7.94
2022-11-24T13:58:32.721Z,7.97
2022-11-24T13:59:32.772Z,7.96
2022-11-24T14:00:32.849Z,7.97
2022-11-24T14:01:33.096Z,7.99
2022-11-24T14:02:33.130Z,7.99
2022-11-24T14:03:33.112Z,8.00
2022-11-24T14:04:33.664Z,8.00
2022-11-24T14:05:33.268Z,8.02
2022-11-24T14:06:33.341Z,8.03
2022-11-24T14:07:33.533Z,8.04
2022-11-24T14:08:42.695Z,8.04
2022-11-24T14:09:33.605Z,8.03
2022-11-24T14:10:33.812Z,8.02
2022-11-24T14:11:33.898Z,8.00
2022-11-24T14:14:34.272Z,7.96
2022-11-24T14:15:35.002Z,7.93
2022-11-24T14:16:35.244Z,7.92
2022-11-24T14:17:35.087Z,7.92
2022-11-24T14:18:35.183Z,7.92
2022-11-24T14:19:35.166Z,7.96
2022-11-24T14:20:35.305Z,7.94
2022-11-24T14:21:35.443Z,7.99
2022-11-24T14:22:35.439Z,7.99
2022-11-24T14:23:35.546Z,7.99
2022-11-24T14:24:41.175Z,8.02
2022-11-24T14:25:35.730Z,8.03
2022-11-24T14:26:35.802Z,8.03
2022-11-24T14:27:35.895Z,8.03
2022-11-24T14:28:36.159Z,8.04
2022-11-24T14:29:36.054Z,8.07
2022-11-24T14:30:36.140Z,8.08
2022-11-24T14:31:36.415Z,8.08
2022-11-24T14:32:36.331Z,8.08
2022-11-24T14:33:36.398Z,8.08
2022-11-24T14:34:36.834Z,8.10
2022-11-24T14:35:36.604Z,8.08
2022-11-24T14:36:36.635Z,8.10
2022-11-24T14:37:36.701Z,8.10
2022-11-24T14:38:36.797Z,8.10
2022-11-24T14:39:36.867Z,8.10
2022-11-24T14:40:36.939Z,8.10
2022-11-24T14:41:37.026Z,8.08
2022-11-24T14:42:37.122Z,8.08
2022-11-24T14:43:37.220Z,8.08
2022-11-24T14:44:37.447Z,8.08
2022-11-24T14:45:37.361Z,8.10
2022-11-24T14:46:37.525Z,8.10
2022-11-24T14:47:37.521Z,8.10
2022-11-24T14:48:37.636Z,8.11
2022-11-24T14:49:37.685Z,8.10
2022-11-24T14:50:37.808Z,8.11
2022-11-24T14:51:37.862Z,8.11
2022-11-24T14:52:37.935Z,8.10
2022-11-24T14:53:38.071Z,8.12
2022-11-24T14:54:38.113Z,8.12
2022-11-24T14:55:38.349Z,8.12
2022-11-24T14:56:38.306Z,8.12
2022-11-24T14:57:38.499Z,8.14
2022-11-24T14:58:42.191Z,8.15
2022-11-24T14:59:38.617Z,8.15
2022-11-24T15:00:38.700Z,8.15
2022-11-24T15:01:38.751Z,8.17
2022-11-24T15:11:19.069Z,7.74
2022-11-24T15:12:20.301Z,7.71
2022-11-24T15:13:20.164Z,7.72
2022-11-24T15:14:20.312Z,7.74
2022-11-24T15:15:20.388Z,7.77
2022-11-24T15:16:20.469Z,7.79
2022-11-24T15:17:20.558Z,7.81
2022-11-24T15:18:20.600Z,7.84
2022-11-24T15:19:20.670Z,7.85
2022-11-24T15:20:20.782Z,7.85
2022-11-24T15:21:21.248Z,7.87
2022-11-24T15:22:21.042Z,7.90
2022-11-24T15:23:21.036Z,7.90
2022-11-24T15:24:21.147Z,7.92
2022-11-24T15:25:21.217Z,7.93
2022-11-24T15:26:23.764Z,7.94
2022-11-24T15:27:21.314Z,7.94
2022-11-24T15:28:21.391Z,7.94
2022-11-24T15:29:21.458Z,7.94
2022-11-24T15:30:21.569Z,7.94
2022-11-24T15:31:21.672Z,7.96
2022-11-24T15:32:21.705Z,7.96
2022-11-24T15:33:21.782Z,7.96
2022-11-24T15:34:21.870Z,7.94
2022-11-24T15:35:21.973Z,7.96
2022-11-24T15:36:22.052Z,7.96
2022-11-24T15:37:22.128Z,7.94
2022-11-24T15:38:22.207Z,7.94
2022-11-24T15:39:22.279Z,7.93
2022-11-24T15:40:22.383Z,7.93
2022-11-24T15:41:22.409Z,7.94
2022-11-24T15:42:22.519Z,7.94
2022-11-24T15:43:22.601Z,7.93
2022-11-24T15:44:22.685Z,7.93
2022-11-24T15:45:22.779Z,7.92
2022-11-24T15:46:22.902Z,7.93
2022-11-24T15:47:22.943Z,7.92
2022-11-24T15:48:23.020Z,7.92
2022-11-24T15:49:23.092Z,7.90
2022-11-24T15:50:23.192Z,7.90
2022-11-24T15:51:23.241Z,7.89
2022-11-24T15:52:24.075Z,7.89
2022-11-24T15:53:23.961Z,7.87
2022-11-24T15:54:23.532Z,7.85
2022-11-24T15:55:23.636Z,7.84
2022-11-24T15:56:23.671Z,7.84
2022-11-24T15:57:23.738Z,7.84
2022-11-24T15:58:23.824Z,7.84
2022-11-24T15:59:23.885Z,7.84
2022-11-24T16:00:23.972Z,7.82
2022-11-24T16:01:24.149Z,7.82
2022-11-24T16:02:24.225Z,7.82
2022-11-24T16:03:46.481Z,7.81
2022-11-24T16:04:24.384Z,7.79
2022-11-24T16:05:24.429Z,7.79
2022-11-24T16:06:25.466Z,7.78
2022-11-24T16:07:24.589Z,7.77
2022-11-24T16:08:24.679Z,7.77
2022-11-24T16:09:24.740Z,7.75
2022-11-24T16:10:24.793Z,7.74
2022-11-24T16:11:24.859Z,7.72
2022-11-24T16:12:24.936Z,7.71
2022-11-24T16:13:25.058Z,7.71
2022-11-24T16:14:25.210Z,7.71
2022-11-24T16:15:25.184Z,7.71
2022-11-24T16:16:25.429Z,7.69
2022-11-24T16:17:25.334Z,7.69
2022-11-24T16:18:25.420Z,7.69
2022-11-24T16:19:25.485Z,7.66
2022-11-24T16:20:25.586Z,7.66
2022-11-24T16:21:25.617Z,7.66
2022-11-24T16:22:25.718Z,7.63
2022-11-24T16:23:25.821Z,7.62
2022-11-24T16:24:25.889Z,7.63
2022-11-24T16:25:25.965Z,7.62
2022-11-24T16:26:26.059Z,7.60
2022-11-24T16:27:26.109Z,7.62
2022-11-24T16:28:26.190Z,7.60
2022-11-24T16:29:26.316Z,7.60
2022-11-24T16:30:26.377Z,7.58
2022-11-24T16:31:26.509Z,7.58
2022-11-24T16:32:26.518Z,7.56
2022-11-24T16:33:26.609Z,7.56
2022-11-24T16:34:26.720Z,7.55
2022-11-24T16:35:26.776Z,7.55
2022-11-24T16:36:26.852Z,7.53
2022-11-24T16:37:26.933Z,7.52
2022-11-24T16:38:27.016Z,7.52
2022-11-24T16:39:27.110Z,7.50
2022-11-24T16:40:27.207Z,7.50
2022-11-24T16:41:27.367Z,7.49
2022-11-24T16:42:27.347Z,7.47
2022-11-24T16:43:27.394Z,7.45
2022-11-24T16:44:27.518Z,7.44
2022-11-24T16:45:27.620Z,7.45
2022-11-24T16:46:27.694Z,7.45
2022-11-24T16:47:27.731Z,7.44
2022-11-24T16:48:27.810Z,7.41
2022-11-24T16:49:27.885Z,7.40
2022-11-24T16:50:27.989Z,7.41
2022-11-24T16:51:34.209Z,7.40
2022-11-24T16:52:28.115Z,7.38
2022-11-24T16:53:28.154Z,7.38
2022-11-24T16:54:28.291Z,7.37
2022-11-24T16:55:28.322Z,7.38
2022-11-24T16:56:28.354Z,7.37
2022-11-24T16:57:28.434Z,7.35
2022-11-24T16:58:28.538Z,7.35
2022-11-24T16:59:28.602Z,7.34
2022-11-24T17:00:28.717Z,7.35
2022-11-24T17:01:28.806Z,7.35
2022-11-24T17:02:28.921Z,7.34
2022-11-24T17:03:28.910Z,7.32
2022-11-24T17:04:29.004Z,7.32
2022-11-24T17:05:29.107Z,7.34
2022-11-24T17:06:29.140Z,7.31
2022-11-24T17:07:29.271Z,7.32
2022-11-24T17:08:29.299Z,7.31
2022-11-24T17:09:29.365Z,7.31
2022-11-24T17:10:29.477Z,7.29
2022-11-24T17:11:29.519Z,7.31
2022-11-24T17:12:29.663Z,7.31
2022-11-24T17:13:29.693Z,7.29
2022-11-24T17:14:29.769Z,7.29
2022-11-24T17:15:34.490Z,7.29
2022-11-24T17:16:30.046Z,7.29
2022-11-24T17:17:30.004Z,7.26
2022-11-24T17:18:30.091Z,7.26
2022-11-24T17:19:30.173Z,7.24
2022-11-24T17:20:30.343Z,7.23
2022-11-24T17:21:30.374Z,7.24
2022-11-24T17:22:30.435Z,7.23
2022-11-24T17:23:30.510Z,7.22
2022-11-24T17:24:30.596Z,7.19
2022-11-24T17:25:30.736Z,7.19
2022-11-24T17:26:30.809Z,7.17
2022-11-24T17:27:30.881Z,7.19
2022-11-24T17:28:30.973Z,7.17
2022-11-24T17:29:31.054Z,7.17
2022-11-24T17:30:31.156Z,7.16
2022-11-24T17:31:31.235Z,7.15
2022-11-24T17:32:31.283Z,7.15
2022-11-24T17:33:31.390Z,7.15
2022-11-24T17:34:31.457Z,7.13
2022-11-24T17:35:31.550Z,7.12
2022-11-24T17:36:31.638Z,7.13
2022-11-24T17:37:31.804Z,7.09
2022-11-24T17:38:31.873Z,7.09
2022-11-24T17:39:31.884Z,7.07
2022-11-24T17:40:32.006Z,7.05
2022-11-24T17:41:32.048Z,7.04
2022-11-24T17:42:32.140Z,7.04
2022-11-24T17:43:32.234Z,7.01
2022-11-24T17:44:32.432Z,6.98
2022-11-24T17:45:32.554Z,6.97
2022-11-24T17:46:32.531Z,6.94
2022-11-24T17:47:32.623Z,6.94
2022-11-24T17:48:32.722Z,6.91
2022-11-24T17:49:34.658Z,6.91
2022-11-24T17:50:32.915Z,6.89
2022-11-24T17:51:32.950Z,6.87
2022-11-24T17:52:33.012Z,6.89
2022-11-24T17:53:33.103Z,6.87
2022-11-24T17:54:56.886Z,6.84
2022-11-24T17:55:33.515Z,6.83
2022-11-24T17:56:33.380Z,6.81
2022-11-24T17:57:33.528Z,6.80
2022-11-24T17:58:37.173Z,6.79
2022-11-24T17:59:33.732Z,6.79
2022-11-24T18:00:33.770Z,6.77
2022-11-24T18:01:33.867Z,6.76
2022-11-24T18:02:34.006Z,6.73
2022-11-24T18:03:33.967Z,6.73
2022-11-24T18:04:34.271Z,6.71
2022-11-24T18:05:34.148Z,6.69
2022-11-24T18:06:34.222Z,6.69
2022-11-24T18:07:34.384Z,6.69
2022-11-24T18:08:34.381Z,6.66
2022-11-24T18:09:34.460Z,6.66
2022-11-24T18:10:34.578Z,6.65
2022-11-24T18:11:34.617Z,6.63
2022-11-24T18:12:34.709Z,6.63
2022-11-24T18:13:55.587Z,6.65
2022-11-24T18:14:35.130Z,6.63
2022-11-24T18:15:34.998Z,6.62
2022-11-24T18:16:35.230Z,6.62
2022-11-24T18:17:35.134Z,6.63
2022-11-24T18:18:39.322Z,6.62
2022-11-24T18:19:35.339Z,6.63
2022-11-24T18:20:35.378Z,6.62
2022-11-24T18:21:35.466Z,6.63
2022-11-24T18:23:05.072Z,6.63
2022-11-24T18:23:35.654Z,6.62
2022-11-24T18:24:35.814Z,6.62
2022-11-24T18:25:35.866Z,6.63
2022-11-24T18:26:35.901Z,6.63
2022-11-24T18:27:35.996Z,6.62
2022-11-24T18:28:36.091Z,6.61
2022-11-24T18:29:36.163Z,6.63
2022-11-24T18:30:36.262Z,6.62
2022-11-24T18:31:36.501Z,6.62
2022-11-24T18:32:36.421Z,6.61
2022-11-24T18:33:36.517Z,6.61
2022-11-24T18:34:37.042Z,6.62
2022-11-24T18:35:36.677Z,6.62
2022-11-24T18:36:36.722Z,6.61
2022-11-24T18:37:36.816Z,6.62
2022-11-24T18:38:36.916Z,6.61
2022-11-24T18:39:36.963Z,6.61
2022-11-24T18:40:37.047Z,6.61
2022-11-24T18:41:37.117Z,6.59
2022-11-24T18:42:37.199Z,6.62
2022-11-24T18:43:37.313Z,6.62
2022-11-24T18:44:37.406Z,6.61
2022-11-24T18:45:37.515Z,6.61
2022-11-24T18:46:37.498Z,6.62
2022-11-24T18:47:37.569Z,6.62
2022-11-24T18:48:37.665Z,6.61
2022-11-24T18:49:37.751Z,6.61
2022-11-24T18:50:37.846Z,6.61
2022-11-24T18:51:37.941Z,6.59
2022-11-24T18:52:38.022Z,6.61
2022-11-24T18:53:38.127Z,6.59
2022-11-24T18:54:38.199Z,6.59
2022-11-24T18:55:38.290Z,6.58
2022-11-24T18:56:38.363Z,6.58
2022-11-24T18:57:38.503Z,6.58
2022-11-24T18:58:38.575Z,6.59
2022-11-24T18:59:38.707Z,6.58
2022-11-24T19:00:38.821Z,6.59
2022-11-24T19:01:38.908Z,6.58
2022-11-24T19:02:39.000Z,6.61
2022-11-24T19:03:42.350Z,6.61
2022-11-24T19:04:39.062Z,6.62
2022-11-24T19:05:39.138Z,6.61
2022-11-24T19:06:39.242Z,6.62
2022-11-24T19:07:39.321Z,6.62
2022-11-24T19:08:39.351Z,6.63
2022-11-24T19:09:39.424Z,6.62
2022-11-24T19:10:39.528Z,6.62
2022-11-24T19:11:39.604Z,6.62
2022-11-24T19:12:39.685Z,6.62
2022-11-24T19:13:39.780Z,6.63
2022-11-24T19:14:39.849Z,6.62
2022-11-24T19:15:39.935Z,6.63
2022-11-24T19:16:40.149Z,6.63
2022-11-24T19:17:40.114Z,6.65
2022-11-24T19:18:40.226Z,6.66
2022-11-24T19:19:40.278Z,6.66
2022-11-24T19:20:40.392Z,6.68
2022-11-24T19:21:40.430Z,6.68
2022-11-24T19:22:40.507Z,6.68
2022-11-24T19:23:40.588Z,6.69
2022-11-24T19:24:40.678Z,6.71
2022-11-24T19:25:40.798Z,6.71
2022-11-24T19:26:40.854Z,6.72
2022-11-24T19:27:40.954Z,6.72
2022-11-24T19:28:41.065Z,6.72
2022-11-24T19:29:43.148Z,6.72
2022-11-24T19:30:41.265Z,6.73
2022-11-24T19:31:41.402Z,6.76
2022-11-24T19:32:41.371Z,6.73
2022-11-24T19:33:41.445Z,6.76
2022-11-24T19:34:41.529Z,6.73
2022-11-24T19:35:41.656Z,6.72
2022-11-24T19:36:41.708Z,6.73
2022-11-24T19:37:41.793Z,6.72
2022-11-24T19:38:41.880Z,6.76
2022-11-24T19:39:41.980Z,6.76
2022-11-24T19:40:42.030Z,6.76
2022-11-24T19:41:42.142Z,6.73
2022-11-24T19:42:42.205Z,6.77
2022-11-24T19:43:42.305Z,6.77
2022-11-24T19:44:42.344Z,6.77
2022-11-24T19:45:42.471Z,6.77
2022-11-24T19:46:42.511Z,6.79
2022-11-24T19:47:42.590Z,6.77
2022-11-24T19:48:42.684Z,6.77
2022-11-24T19:49:42.770Z,6.80
2022-11-24T19:50:42.877Z,6.79
2022-11-24T19:51:42.934Z,6.79
2022-11-24T19:52:43.005Z,6.81
2022-11-24T19:53:43.086Z,6.81
2022-11-24T19:54:43.187Z,6.80
2022-11-24T19:55:43.305Z,6.81
2022-11-24T19:56:43.388Z,6.81
2022-11-24T19:57:43.455Z,6.83
2022-11-24T19:58:43.514Z,6.83
2022-11-24T19:59:43.568Z,6.83
2022-11-24T20:00:43.693Z,6.83
2022-11-24T20:01:43.835Z,6.83
2022-11-24T20:02:43.909Z,6.84
2022-11-24T20:03:43.906Z,6.84
2022-11-24T20:04:43.992Z,6.83
2022-11-24T20:05:44.093Z,6.80
2022-11-24T20:06:44.176Z,6.79
2022-11-24T20:07:44.301Z,6.76
2022-11-24T20:08:44.335Z,6.73
2022-11-24T20:09:44.411Z,6.73
2022-11-24T20:10:44.529Z,6.72
2022-11-24T20:11:44.588Z,6.72
2022-11-24T20:12:44.641Z,6.73
2022-11-24T20:13:44.724Z,6.72
2022-11-24T20:14:44.760Z,6.72